Time;durP1;ratioP1;P1;durP2;ratioP2;P2;SDS_P1;SDS_P2;PMS_P1;PMS_P2;Temp;Humidity;BMP_temperature;BMP_pressure;BME280_temperature;BME280_humidity;BME280_pressure;Samples;Min_cycle;Max_cycle;Signal;HPM_P1;HPM_P2
2021/08/20 00:00:24;;;;;;;;;;;;;;;;;;2074448;28;99909;-19
2021/08/20 00:01:37;;;;;;;;;;;;;;;;;;2099499;27;100266;-18
2021/08/20 00:02:38;;;;;;;;;;;;;;;;;;2098533;27;100398;-21
2021/08/20 00:03:39;;;;;;;;;;;;;;;;;;2097677;27;99834;-19
2021/08/20 00:04:39;;;;;;;;;;;;;;;;;;2097831;27;100098;-18
2021/08/20 00:05:40;;;;;;;;;;;;;;;;;;2098369;27;99992;-22
2021/08/20 00:06:41;;;;;;;;;;;;;;;;;;2098409;27;99984;-18
2021/08/20 00:07:42;;;;;;;;;;;;;;;;;;2098365;27;99992;-20
2021/08/20 00:08:43;;;;;;;;;;;;;;;;;;2098206;27;100052;-19
2021/08/20 00:09:43;;;;;;;;;;;;;;;;;;2098367;27;100259;-19
2021/08/20 00:10:44;;;;;;;;;;;;;;;;;;2097566;27;99985;-19
2021/08/20 00:11:46;;;;;;;;;;;;;;;;;;2097326;27;101082;-21
2021/08/20 00:12:47;;;;;;;;;;;;;;;;;;2098071;27;100150;-19
2021/08/20 00:13:47;;;;;;;;;;;;;;;;;;2098371;27;100141;-20
2021/08/20 00:14:49;;;;;;;;;;;;;;;;;;2097977;27;100039;-19
2021/08/20 00:15:49;;;;;;;;;;;;;;;;;;2098072;27;99953;-19
2021/08/20 00:16:50;;;;;;;;;;;;;;;;;;2097606;27;100082;-20
2021/08/20 00:17:51;;;;;;;;;;;;;;;;;;2097069;27;100309;-20
2021/08/20 00:18:52;;;;;;;;;;;;;;;;;;2097961;27;100024;-21
2021/08/20 00:19:52;;;;;;;;;;;;;;;;;;2098000;27;100023;-20
2021/08/20 00:20:53;;;;;;;;;;;;;;;;;;2114883;27;100492;-17
2021/08/20 00:21:54;;;;;;;;;;;;;;;;;;2114595;27;99927;-19
2021/08/20 00:22:55;;;;;;;;;;;;;;;;;;2098353;27;99945;-18
2021/08/20 00:23:57;;;;;;;;;;;;;;;;;;2098105;27;99789;-18
2021/08/20 00:24:57;;;;;;;;;;;;;;;;;;2098366;27;99915;-18
2021/08/20 00:25:58;;;;;;;;;;;;;;;;;;2097894;27;100615;-19
2021/08/20 00:26:59;;;;;;;;;;;;;;;;;;2098297;27;99858;-19
2021/08/20 00:28:00;;;;;;;;;;;;;;;;;;2098279;27;99937;-20
2021/08/20 00:29:00;;;;;;;;;;;;;;;;;;2098172;27;100081;-18
2021/08/20 00:30:07;;;;;;;;;;;;;;;;;;2097501;27;100117;-18
2021/08/20 00:31:07;;;;;;;;;;;;;;;;;;2097441;27;100105;-19
2021/08/20 00:32:08;;;;;;;;;;;;;;;;;;2097519;27;99892;-17
2021/08/20 00:33:09;;;;;;;;;;;;;;;;;;2097559;27;100557;-20
2021/08/20 00:34:10;;;;;;;;;;;;;;;;;;2096961;27;100143;-18
2021/08/20 00:35:11;;;;;;;;;;;;;;;;;;2089186;27;100061;-20
2021/08/20 00:36:11;;;;;;;;;;;;;;;;;;2097388;27;99988;-20
2021/08/20 00:37:14;;;;;;;;;;;;;;;;;;2098245;27;99942;-21
2021/08/20 00:38:15;;;;;;;;;;;;;;;;;;2098105;27;100001;-21
2021/08/20 00:39:16;;;;;;;;;;;;;;;;;;2098245;27;99944;-20
2021/08/20 00:40:17;;;;;;;;;;;;;;;;;;2097965;27;99877;-17
2021/08/20 00:41:18;;;;;;;;;;;;;;;;;;2098066;27;100100;-21
2021/08/20 00:42:19;;;;;;;;;;;;;;;;;;2114578;27;100048;-19
2021/08/20 00:43:22;;;;;;;;;;;;;;;;;;2114526;27;100293;-18
2021/08/20 00:44:23;;;;;;;;;;;;;;;;;;2097942;27;99989;-18
2021/08/20 00:45:25;;;;;;;;;;;;;;;;;;2097368;27;99951;-18
2021/08/20 00:46:25;;;;;;;;;;;;;;;;;;2089113;27;100273;-19
2021/08/20 00:47:26;;;;;;;;;;;;;;;;;;2097171;27;99880;-19
2021/08/20 00:48:27;;;;;;;;;;;;;;;;;;2097258;27;100188;-20
2021/08/20 00:49:28;;;;;;;;;;;;;;;;;;2097259;27;99969;-18
2021/08/20 00:50:30;;;;;;;;;;;;;;;;;;2097269;27;100452;-18
2021/08/20 00:51:35;;;;;;;;;;;;;;;;;;2097945;27;99857;-21
2021/08/20 00:52:37;;;;;;;;;;;;;;;;;;2097732;27;99940;-21
2021/08/20 00:53:38;;;;;;;;;;;;;;;;;;2097883;27;100314;-19
2021/08/20 00:54:39;;;;;;;;;;;;;;;;;;2098319;27;99938;-20
2021/08/20 00:55:40;;;;;;;;;;;;;;;;;;2097259;27;100312;-19
2021/08/20 00:56:45;;;;;;;;;;;;;;;;;;2096988;27;100260;-22
2021/08/20 09:11:26;;;;;;;6.97;4.70;;;;;;;;;;2090489;27;99855;-19
2021/08/20 09:12:42;;;;;;;8.27;4.28;;;;;;;;;;2081947;28;99935;-26
2021/08/20 09:13:53;;;;;;;6.18;4.22;;;;;;;;;;2082267;28;99848;-17
2021/08/20 09:15:06;;;;;;;7.80;4.50;;;;;;;;;;2073929;28;100079;-16
2021/08/20 09:16:18;;;;;;;7.00;4.53;;;;;;;;;;2073934;28;99994;-18
2021/08/20 09:17:35;;;;;;;7.60;4.50;;;;;;;;;;2082189;28;100045;-19
2021/08/20 09:19:07;;;;;;;5.93;3.92;;;;;;;;;;2082070;28;99933;-18
2021/08/20 09:20:31;;;;;;;7.00;4.30;;;;;;;;;;2116037;27;99888;-19
2021/08/20 09:21:53;;;;;;;7.18;4.22;;;;;;;;;;2082037;28;100010;-20
2021/08/20 09:23:21;;;;;;;6.57;4.25;;;;;;;;;;2082108;28;99916;-17
2021/08/20 09:24:43;;;;;;;8.20;4.57;;;;;;;;;;2082074;28;99861;-22
2021/08/20 09:25:56;;;;;;;7.75;4.13;;;;;;;;;;2081856;28;99980;-20
2021/08/20 09:27:27;;;;;;;13.23;4.05;;;;;;;;;;2090465;27;99894;-21
2021/08/20 09:28:37;;;;;;;6.60;3.90;;;;;;;;;;2065598;27;1524120;-18
2021/08/20 09:30:03;;;;;;;10.50;4.53;;;;;;;;;;2073779;28;99800;-17
2021/08/20 09:31:15;;;;;;;6.65;4.20;;;;;;;;;;2099053;27;99997;-17
2021/08/20 09:32:28;;;;;;;7.90;4.40;;;;;;;;;;2081964;28;100303;-18
2021/08/20 09:33:43;;;;;;;6.28;4.10;;;;;;;;;;2090447;27;99891;-20
2021/08/20 09:34:58;;;;;;;8.25;4.38;;;;;;;;;;2081916;28;100070;-18
2021/08/20 09:36:13;;;;;;;6.55;4.15;;;;;;;;;;2082161;28;99901;-18
2021/08/20 09:37:27;;;;;;;7.07;4.47;;;;;;;;;;2115955;27;100318;-20
2021/08/20 09:38:52;;;;;;;7.30;4.10;;;;;;;;;;2073570;28;100052;-17
2021/08/20 09:40:11;;;;;;;6.22;4.10;;;;;;;;;;2090450;27;99826;-17
2021/08/20 09:41:41;;;;;;;6.30;4.32;;;;;;;;;;2081763;28;100000;-18
2021/08/20 09:43:09;;;;;;;8.15;4.20;;;;;;;;;;2081935;28;100146;-17
2021/08/20 09:44:28;;;;;;;7.35;4.20;;;;;;;;;;2082002;28;99926;-21
2021/08/20 09:46:15;;;;;;;6.13;3.97;;;;;;;;;;2073814;28;99943;-17
2021/08/20 09:47:28;;;;;;;9.02;4.47;;;;;;;;;;2081882;28;99979;-17
2021/08/20 09:48:51;;;;;;;8.87;3.97;;;;;;;;;;2081928;28;100129;-20
2021/08/20 09:50:04;;;;;;;8.80;4.28;;;;;;;;;;2107377;27;99855;-19
2021/08/20 09:51:31;;;;;;;7.83;4.07;;;;;;;;;;2073616;28;99828;-18
2021/08/20 09:52:44;;;;;;;6.97;3.85;;;;;;;;;;2090586;27;99883;-16
2021/08/20 09:53:58;;;;;;;7.55;4.15;;;;;;;;;;2082005;28;99956;-19
2021/08/20 09:55:10;;;;;;;7.25;3.90;;;;;;;;;;2073822;28;99916;-18
2021/08/20 09:56:22;;;;;;;8.77;4.50;;;;;;;;;;2090515;27;100203;-17
2021/08/20 09:57:37;;;;;;;8.90;3.87;;;;;;;;;;2098943;27;100153;-19
2021/08/20 09:58:49;;;;;;;12.35;4.10;;;;;;;;;;2082052;28;99968;-21
2021/08/20 10:00:01;;;;;;;7.00;4.37;;;;;;;;;;2081778;28;99973;-20
2021/08/20 10:01:12;;;;;;;7.22;4.28;;;;;;;;;;2067476;27;1468608;-20
2021/08/20 10:02:27;;;;;;;6.85;4.20;;;;;;;;;;2124617;27;99856;-22
2021/08/20 10:03:39;;;;;;;15.73;4.65;;;;;;;;;;2082057;28;100007;-22
2021/08/20 10:04:54;;;;;;;7.47;3.83;;;;;;;;;;2073809;28;100050;-17
2021/08/20 10:06:06;;;;;;;9.65;4.00;;;;;;;;;;2090332;27;99929;-22
2021/08/20 10:07:18;;;;;;;7.10;4.17;;;;;;;;;;2081845;28;100075;-19
2021/08/20 10:08:32;;;;;;;8.10;3.80;;;;;;;;;;2073661;28;100055;-19
2021/08/20 10:09:46;;;;;;;9.15;4.00;;;;;;;;;;2082242;28;99867;-18
2021/08/20 10:10:59;;;;;;;8.00;4.28;;;;;;;;;;2073815;28;99929;-20
2021/08/20 10:12:17;;;;;;;6.53;3.72;;;;;;;;;;2081947;28;99874;-20
2021/08/20 10:13:31;;;;;;;8.50;4.07;;;;;;;;;;2073863;28;99990;-17
2021/08/20 10:14:32;;;;;;;13.52;4.22;;;;;;;;;;2072669;28;100159;-17
2021/08/20 10:15:33;;;;;;;8.25;4.25;;;;;;;;;;2072825;28;99937;-18
2021/08/20 10:16:36;;;;;;;6.93;3.72;;;;;;;;;;2072857;28;100552;-19
2021/08/20 10:17:37;;;;;;;8.52;3.90;;;;;;;;;;2072394;28;99990;-17
2021/08/20 10:18:41;;;;;;;12.45;4.43;;;;;;;;;;2072498;28;99945;-21
2021/08/20 10:19:49;;;;;;;7.80;4.32;;;;;;;;;;2072702;28;100498;-21
2021/08/20 10:20:50;;;;;;;7.03;4.00;;;;;;;;;;2072382;28;100275;-18
2021/08/20 10:21:51;;;;;;;8.13;3.60;;;;;;;;;;2072335;28;99994;-20
2021/08/20 10:22:52;;;;;;;8.10;3.90;;;;;;;;;;2072007;28;100160;-21
2021/08/20 10:23:53;;;;;;;9.35;4.00;;;;;;;;;;2072882;28;99989;-18
2021/08/20 10:24:54;;;;;;;;;;;;;;;;;;2072942;28;100543;-18
2021/08/20 10:25:56;;;;;;;7.47;4.28;;;;;;;;;;2072870;28;99960;-18
2021/08/20 10:27:00;;;;;;;8.50;4.07;;;;;;;;;;2072490;28;99874;-18
2021/08/20 10:28:01;;;;;;;8.65;4.18;;;;;;;;;;2071872;28;100026;-19
2021/08/20 10:29:03;;;;;;;9.25;4.10;;;;;;;;;;2063649;28;100051;-17
2021/08/20 10:30:06;;;;;;;9.13;3.70;;;;;;;;;;2071785;28;100048;-18
2021/08/20 10:31:09;;;;;;;9.63;3.95;;;;;;;;;;2072322;28;99899;-17
2021/08/20 10:32:12;;;;;;;8.25;4.10;;;;;;;;;;2072871;28;100406;-19
2021/08/20 10:33:13;;;;;;;9.65;3.60;;;;;;;;;;2071404;28;100212;-20
2021/08/20 10:34:41;;;;;;;8.80;4.10;;;;;;;;;;2071706;28;99947;-18
2021/08/20 10:35:56;;;;;;;5.85;3.58;;;;;;;;;;2070256;28;100510;-17
2021/08/20 10:37:05;;;;;;;5.45;3.60;;;;;;;;;;2072295;28;99956;-19
2021/08/20 10:38:47;;;;;;;6.40;3.25;;;;;;;;;;2072947;28;100361;-17
2021/08/20 10:39:51;;;;;;;8.68;3.67;;;;;;;;;;2071930;28;99919;-20
2021/08/20 10:41:11;;;;;;;9.98;3.70;;;;;;;;;;2072807;28;99857;-18
2021/08/20 10:42:42;;;;;;;9.20;4.10;;;;;;;;;;2082023;28;99968;-18
2021/08/20 10:43:54;;;;;;;12.45;3.90;;;;;;;;;;2090227;27;100037;-19
2021/08/20 10:45:12;;;;;;;7.22;4.18;;;;;;;;;;2081985;28;100006;-18
2021/08/20 10:46:32;;;;;;;8.73;3.60;;;;;;;;;;2082125;28;99968;-17
2021/08/20 10:47:46;;;;;;;11.18;4.50;;;;;;;;;;2073551;28;99928;-18
2021/08/20 10:50:36;;;;;;;8.55;4.10;;;;;;;;;;2073698;28;99923;-19
2021/08/20 10:51:55;;;;;;;8.35;4.18;;;;;;;;;;2057227;27;1464983;-16
2021/08/20 10:53:21;;;;;;;6.30;3.90;;;;;;;;;;2073695;28;100051;-20
2021/08/20 10:54:42;;;;;;;6.63;3.80;;;;;;;;;;2078668;28;100291;-20
2021/08/20 10:56:35;;;;;;;6.57;3.60;;;;;;;;;;2098552;27;100401;-16
2021/08/20 10:57:53;;;;;;;7.80;3.65;;;;;;;;;;2073134;28;99959;-20
2021/08/20 10:59:04;;;;;;;6.22;3.72;;;;;;;;;;2081311;28;100485;-21
2021/08/20 11:00:19;;;;;;;9.43;3.60;;;;;;;;;;2080949;28;100199;-22
2021/08/20 11:01:32;;;;;;;6.15;3.72;;;;;;;;;;2123967;27;99858;-17
2021/08/20 11:02:53;;;;;;;9.00;3.83;;;;;;;;;;2080976;28;100539;-22
2021/08/20 11:04:04;;;;;;;8.35;4.00;;;;;;;;;;2072826;28;99952;-21
2021/08/20 11:05:19;;;;;;;6.97;4.13;;;;;;;;;;2073266;28;100208;-19
2021/08/20 11:06:55;;;;;;;9.52;4.15;;;;;;;;;;2081650;28;99976;-20
2021/08/20 11:08:26;;;;;;;5.68;3.40;;;;;;;;;;2089939;27;100064;-21
2021/08/20 11:09:42;;;;;;;7.88;3.72;;;;;;;;;;2073451;28;100094;-17
2021/08/20 11:10:56;;;;;;;6.45;3.78;;;;;;;;;;2066138;28;99937;-18
2021/08/20 11:12:09;;;;;;;8.38;4.20;;;;;;;;;;2090204;27;100461;-21
2021/08/20 11:13:21;;;;;;;10.57;3.67;;;;;;;;;;2082389;28;100151;-17
2021/08/20 11:14:34;;;;;;;8.00;4.07;;;;;;;;;;2073708;28;99899;-16
2021/08/20 11:15:48;;;;;;;7.95;3.72;;;;;;;;;;2073913;28;99973;-21
2021/08/20 11:17:00;;;;;;;9.43;3.92;;;;;;;;;;2073589;28;99907;-21
2021/08/20 11:18:12;;;;;;;6.87;3.60;;;;;;;;;;2081988;28;100389;-20
2021/08/20 11:19:46;;;;;;;8.57;3.80;;;;;;;;;;2082127;28;99924;-19
2021/08/20 11:21:06;;;;;;;8.65;4.22;;;;;;;;;;2071781;28;100116;-18
2021/08/20 11:22:34;;;;;;;12.02;4.30;;;;;;;;;;2082009;28;99953;-18
2021/08/20 11:23:46;;;;;;;7.60;3.70;;;;;;;;;;2082006;28;100111;-17
2021/08/20 11:25:12;;;;;;;7.23;3.90;;;;;;;;;;2073727;28;100001;-20
2021/08/20 11:26:30;;;;;;;11.85;4.05;;;;;;;;;;2082153;28;99909;-17
2021/08/20 11:27:56;;;;;;;8.35;4.30;;;;;;;;;;2082046;28;99900;-20
2021/08/20 11:29:09;;;;;;;8.35;4.35;;;;;;;;;;2073127;28;99981;-20
2021/08/20 11:30:21;;;;;;;6.07;3.75;;;;;;;;;;2084764;27;100310;-19
2021/08/20 11:31:22;;;;;;;8.60;3.97;;;;;;;;;;2081736;27;99860;-17
2021/08/20 11:32:23;;;;;;;;;;;;;;;;;;2088879;27;100032;-18
2021/08/20 11:33:29;;;;;;;7.22;3.85;;;;;;;;;;2088447;27;100166;-19
2021/08/20 11:34:30;;;;;;;8.48;3.53;;;;;;;;;;2071749;28;100404;-19
2021/08/20 11:35:31;;;;;;;9.15;3.80;;;;;;;;;;2080365;27;99948;-18
2021/08/20 11:36:32;;;;;;;;;;;;;;;;;;2088946;27;99962;-16
2021/08/20 11:37:33;;;;;;;8.00;3.75;;;;;;;;;;2088406;27;100032;-18
2021/08/20 11:38:41;;;;;;;8.60;3.72;;;;;;;;;;2089179;27;100053;-19
2021/08/20 11:39:47;;;;;;;7.82;3.67;;;;;;;;;;2089097;27;99997;-19
2021/08/20 11:40:50;;;;;;;8.38;3.80;;;;;;;;;;2085868;27;100012;-19
2021/08/20 11:41:56;;;;;;;8.23;3.13;;;;;;;;;;2080078;28;100084;-20
2021/08/20 11:43:10;;;;;;;9.45;3.90;;;;;;;;;;2080111;28;102177;-20
2021/08/20 11:44:16;;;;;;;10.02;3.55;;;;;;;;;;2085525;27;99854;-20
2021/08/20 11:45:21;;;;;;;13.55;4.22;;;;;;;;;;2082915;27;102050;-20
2021/08/20 11:46:24;;;;;;;9.85;4.20;;;;;;;;;;2082013;27;100108;-19
2021/08/20 11:47:25;;;;;;;7.25;3.53;;;;;;;;;;2087276;27;100048;-19
2021/08/20 11:48:28;;;;;;;8.90;4.20;;;;;;;;;;2085169;27;100111;-22
2021/08/20 11:49:29;;;;;;;10.25;3.97;;;;;;;;;;2085194;27;100100;-19
2021/08/20 11:50:32;;;;;;;9.45;3.92;;;;;;;;;;2088803;27;100170;-19
2021/08/20 11:51:35;;;;;;;10.07;4.00;;;;;;;;;;2085821;27;99869;-20
2021/08/20 11:52:48;;;;;;;7.47;4.10;;;;;;;;;;2079688;27;100023;-19
2021/08/20 11:53:49;;;;;;;9.38;3.97;;;;;;;;;;2080407;28;100174;-22
2021/08/20 11:54:50;;;;;;;8.82;4.20;;;;;;;;;;2079487;28;100062;-19
2021/08/20 11:56:05;;;;;;;;;;;;;;;;;;2080034;28;100029;-19
2021/08/20 11:57:06;;;;;;;7.03;3.75;;;;;;;;;;2080898;28;100051;-19
2021/08/20 11:58:08;;;;;;;10.15;3.55;;;;;;;;;;2080645;28;100029;-19
2021/08/20 11:59:11;;;;;;;10.32;3.97;;;;;;;;;;2055082;28;100229;-20
2021/08/20 12:00:13;;;;;;;9.07;3.95;;;;;;;;;;2055759;28;100067;-20
2021/08/20 12:01:32;;;;;;;8.52;3.42;;;;;;;;;;2078032;28;99896;-22
2021/08/20 12:02:33;;;;;;;7.25;3.58;;;;;;;;;;2080262;28;100090;-18
2021/08/20 12:03:35;;;;;;;;;;;;;;;;;;2081257;27;100537;-22
2021/08/20 12:04:37;;;;;;;7.85;3.78;;;;;;;;;;2079879;28;100000;-19
2021/08/20 12:05:38;;;;;;;6.90;3.42;;;;;;;;;;2079889;28;100016;-19
2021/08/20 12:06:42;;;;;;;;;;;;;;;;;;2080258;27;100005;-20
2021/08/20 12:07:44;;;;;;;6.80;3.72;;;;;;;;;;2080688;27;100451;-19
2021/08/20 12:08:46;;;;;;;8.32;3.63;;;;;;;;;;2079889;28;100051;-20
2021/08/20 12:09:59;;;;;;;5.40;3.38;;;;;;;;;;2079975;28;100095;-21
2021/08/20 12:10:59;;;;;;;9.40;4.07;;;;;;;;;;2080691;27;100295;-22
2021/08/20 12:12:00;;;;;;;;;;;;;;;;;;2080952;27;99994;-22
2021/08/20 12:13:02;;;;;;;8.32;3.38;;;;;;;;;;2080605;27;100057;-20
2021/08/20 12:14:03;;;;;;;6.55;3.75;;;;;;;;;;2080818;27;99877;-18
2021/08/20 12:15:05;;;;;;;10.30;3.80;;;;;;;;;;2080531;28;100059;-19
2021/08/20 12:16:06;;;;;;;7.03;3.97;;;;;;;;;;2080384;27;100026;-19
2021/08/20 12:17:10;;;;;;;;;;;;;;;;;;2080866;28;100064;-19
2021/08/20 12:18:28;;;;;;;7.00;3.78;;;;;;;;;;2080601;28;99940;-20
2021/08/20 12:19:41;;;;;;;11.73;4.10;;;;;;;;;;2071197;28;100221;-18
2021/08/20 12:20:42;;;;;;;9.63;3.60;;;;;;;;;;2071703;28;99952;-19
2021/08/20 12:21:47;;;;;;;;;;;;;;;;;;2080033;28;100117;-20
2021/08/20 12:22:51;;;;;;;10.88;4.03;;;;;;;;;;2079604;28;100044;-18
2021/08/20 12:24:02;;;;;;;7.45;3.63;;;;;;;;;;2080321;27;99995;-19
2021/08/20 12:25:21;;;;;;;9.50;3.78;;;;;;;;;;2080542;28;100065;-19
2021/08/20 12:26:22;;;;;;;7.07;3.83;;;;;;;;;;2080617;28;99993;-19
2021/08/20 12:27:25;;;;;;;;;;;;;;;;;;2079788;28;100006;-19
2021/08/20 12:28:26;;;;;;;8.02;3.80;;;;;;;;;;2079940;28;100028;-20
2021/08/20 12:29:26;;;;;;;;;;;;;;;;;;2080163;28;100289;-21
2021/08/20 12:30:28;;;;;;;11.32;3.70;;;;;;;;;;2080211;28;100180;-19
2021/08/20 12:31:29;;;;;;;7.00;3.70;;;;;;;;;;2080736;27;100259;-20
2021/08/20 12:32:33;;;;;;;;;;;;;;;;;;2079516;27;100103;-20
2021/08/20 12:33:34;;;;;;;13.18;3.95;;;;;;;;;;2080733;28;99953;-21
2021/08/20 12:34:36;;;;;;;16.40;4.28;;;;;;;;;;2079289;27;100426;-20
2021/08/20 12:35:39;;;;;;;13.68;4.72;;;;;;;;;;2080339;28;99965;-19
2021/08/20 12:36:42;;;;;;;13.75;4.40;;;;;;;;;;2080832;27;100066;-19
2021/08/20 12:38:20;;;;;;;15.25;4.93;;;;;;;;;;2080274;28;99866;-18
2021/08/20 12:39:33;;;;;;;477.42;166.63;;;;;;;;;;2079663;28;99990;-21
2021/08/20 12:40:51;;;;;;;691.20;239.23;;;;;;;;;;2078790;28;100024;-22
2021/08/20 12:41:52;;;;;;;509.55;158.95;;;;;;;;;;2073479;28;100052;-22
2021/08/20 12:42:53;;;;;;;;;;;;;;;;;;2075130;28;99818;-20
2021/08/20 12:43:54;;;;;;;625.15;206.95;;;;;;;;;;2074946;28;100515;-21
2021/08/20 12:45:12;;;;;;;;;;;;;;;;;;2075051;28;99920;-22
2021/08/20 12:46:18;;;;;;;492.35;150.70;;;;;;;;;;2074159;28;100093;-19
2021/08/20 12:47:28;;;;;;;457.90;135.45;;;;;;;;;;2073838;28;100169;-22
2021/08/20 12:48:29;;;;;;;423.63;126.28;;;;;;;;;;2074349;28;100099;-18
2021/08/20 12:49:29;;;;;;;;;;;;;;;;;;2074085;28;100162;-19
2021/08/20 12:50:32;;;;;;;413.30;122.63;;;;;;;;;;2073920;28;100001;-18
2021/08/20 12:51:37;;;;;;;396.85;120.57;;;;;;;;;;2073710;28;99967;-19
2021/08/20 12:52:39;;;;;;;405.13;119.00;;;;;;;;;;2073863;28;100118;-22
2021/08/20 12:53:40;;;;;;;392.65;116.57;;;;;;;;;;2074408;28;99935;-18
2021/08/20 12:54:41;;;;;;;;;;;;;;;;;;2074866;28;99839;-21
2021/08/20 12:55:46;;;;;;;380.80;112.68;;;;;;;;;;2075174;28;99805;-19
2021/08/20 12:56:48;;;;;;;391.95;113.18;;;;;;;;;;2074078;28;99986;-20
2021/08/20 12:57:49;;;;;;;379.45;113.88;;;;;;;;;;2074380;28;99963;-22
2021/08/20 12:58:58;;;;;;;384.75;115.57;;;;;;;;;;2074148;28;99866;-22
2021/08/20 13:00:03;;;;;;;368.05;112.55;;;;;;;;;;2073796;28;99880;-22
2021/08/20 13:01:08;;;;;;;373.33;113.13;;;;;;;;;;2073697;28;100054;-18
2021/08/20 13:02:09;;;;;;;363.48;110.22;;;;;;;;;;2074567;28;99928;-20
2021/08/20 13:03:11;;;;;;;;;;;;;;;;;;2075002;28;99846;-20
2021/08/20 13:04:12;;;;;;;341.30;104.45;;;;;;;;;;2074859;28;100096;-20
2021/08/20 13:05:13;;;;;;;330.65;97.25;;;;;;;;;;2073561;28;99967;-22
2021/08/20 13:06:14;;;;;;;353.75;105.13;;;;;;;;;;2081391;28;100207;-19
2021/08/20 13:07:15;;;;;;;;;;;;;;;;;;2081623;28;99949;-19
2021/08/20 13:08:16;;;;;;;323.65;100.65;;;;;;;;;;2073779;28;100116;-22
2021/08/20 13:09:20;;;;;;;337.88;103.35;;;;;;;;;;2065539;28;100007;-19
2021/08/20 13:10:21;;;;;;;336.45;102.22;;;;;;;;;;2073464;28;100024;-20
2021/08/20 13:11:23;;;;;;;;;;;;;;;;;;2074786;28;100010;-19
2021/08/20 13:12:25;;;;;;;335.95;100.75;;;;;;;;;;2082698;27;99932;-20
2021/08/20 13:13:27;;;;;;;326.77;95.30;;;;;;;;;;2082002;27;100105;-22
2021/08/20 13:14:32;;;;;;;321.83;94.88;;;;;;;;;;2075148;28;99968;-19
2021/08/20 13:15:33;;;;;;;279.67;80.93;;;;;;;;;;2080451;28;99955;-20
2021/08/20 13:16:34;;;;;;;;;;;;;;;;;;2074713;27;100019;-21
2021/08/20 13:17:34;;;;;;;274.33;82.82;;;;;;;;;;2074580;28;100012;-22
2021/08/20 13:18:35;;;;;;;;;;;;;;;;;;2075279;28;100149;-19
2021/08/20 13:19:36;;;;;;;311.15;93.28;;;;;;;;;;2074498;28;99972;-20
2021/08/20 13:20:37;;;;;;;289.90;89.90;;;;;;;;;;2078767;28;100008;-22
2021/08/20 13:21:38;;;;;;;;;;;;;;;;;;2082160;28;100017;-22
2021/08/20 13:22:45;;;;;;;255.77;76.93;;;;;;;;;;2081670;28;100067;-21
2021/08/20 13:23:48;;;;;;;272.10;88.00;;;;;;;;;;2082288;27;100015;-19
2021/08/20 13:24:48;;;;;;;279.63;89.05;;;;;;;;;;2082236;27;99969;-20
2021/08/20 13:25:49;;;;;;;;;;;;;;;;;;2082419;28;99855;-21
2021/08/20 13:26:50;;;;;;;268.08;81.45;;;;;;;;;;2082702;27;100183;-18
2021/08/20 13:27:51;;;;;;;;;;;;;;;;;;2082904;28;99961;-20
2021/08/20 13:28:52;;;;;;;263.63;84.25;;;;;;;;;;2079228;27;99921;-19
2021/08/20 13:29:53;;;;;;;239.23;77.57;;;;;;;;;;2072666;28;100172;-22
2021/08/20 13:30:54;;;;;;;;;;;;;;;;;;2073729;28;100401;-21
2021/08/20 13:31:55;;;;;;;233.57;70.70;;;;;;;;;;2073552;28;100026;-21
2021/08/20 13:32:56;;;;;;;257.67;84.20;;;;;;;;;;2073973;28;100062;-22
2021/08/20 13:33:56;;;;;;;;;;;;;;;;;;2074852;28;99964;-19
2021/08/20 13:34:57;;;;;;;275.73;84.23;;;;;;;;;;2074268;28;100284;-19
2021/08/20 13:35:58;;;;;;;276.67;86.93;;;;;;;;;;2073863;28;100084;-18
2021/08/20 13:37:01;;;;;;;;;;;;;;;;;;2074750;28;99783;-19
2021/08/20 13:38:03;;;;;;;251.00;83.03;;;;;;;;;;2074127;28;99794;-19
2021/08/20 13:39:03;;;;;;;251.73;80.07;;;;;;;;;;2074490;28;99947;-19
2021/08/20 13:40:05;;;;;;;;;;;;;;;;;;2074926;28;99948;-21
2021/08/20 13:41:05;;;;;;;183.13;57.67;;;;;;;;;;2074634;28;99880;-21
2021/08/20 13:42:06;;;;;;;171.70;53.75;;;;;;;;;;2074087;28;99932;-19
2021/08/20 13:43:09;;;;;;;;;;;;;;;;;;2072794;28;100255;-21
2021/08/20 13:44:10;;;;;;;199.20;62.03;;;;;;;;;;2075035;28;100021;-21
2021/08/20 13:45:12;;;;;;;150.10;47.30;;;;;;;;;;2072920;28;99987;-20
2021/08/20 13:46:12;;;;;;;;;;;;;;;;;;2076271;28;99846;-21
2021/08/20 13:47:13;;;;;;;163.27;50.72;;;;;;;;;;2073999;28;100030;-20
2021/08/20 13:48:16;;;;;;;174.30;53.05;;;;;;;;;;2074302;28;99976;-20
2021/08/20 13:49:18;;;;;;;165.00;51.30;;;;;;;;;;2073765;28;100051;-19
2021/08/20 13:50:19;;;;;;;146.25;44.53;;;;;;;;;;2074015;28;100161;-19
2021/08/20 13:51:20;;;;;;;149.88;46.05;;;;;;;;;;2073902;28;100045;-19
2021/08/20 13:52:20;;;;;;;;;;;;;;;;;;2074533;28;99970;-21
2021/08/20 13:53:21;;;;;;;128.52;40.58;;;;;;;;;;2066070;28;99989;-21
2021/08/20 13:54:23;;;;;;;129.77;44.17;;;;;;;;;;2066093;28;99861;-20
2021/08/20 13:55:24;;;;;;;113.95;37.67;;;;;;;;;;2072874;28;100087;-21
2021/08/20 13:56:25;;;;;;;;;;;;;;;;;;2074434;28;100015;-20
2021/08/20 13:57:26;;;;;;;;;;;;;;;;;;2074544;28;99885;-18
2021/08/20 13:58:27;;;;;;;127.95;40.55;;;;;;;;;;2074033;28;100017;-21
2021/08/20 13:59:28;;;;;;;;;;;;;;;;;;2073809;28;100119;-18
2021/08/20 14:00:29;;;;;;;125.85;38.83;;;;;;;;;;2072689;28;100178;-20
2021/08/20 14:01:30;;;;;;;112.85;36.42;;;;;;;;;;2072915;28;99865;-25
2021/08/20 14:02:32;;;;;;;;;;;;;;;;;;2074030;28;99892;-25
2021/08/20 14:03:32;;;;;;;99.40;33.97;;;;;;;;;;2073529;28;100036;-19
2021/08/20 14:04:33;;;;;;;102.38;32.78;;;;;;;;;;2074222;28;99881;-21
2021/08/20 14:05:35;;;;;;;;;;;;;;;;;;2073631;28;100474;-18
2021/08/20 14:06:35;;;;;;;95.50;31.30;;;;;;;;;;2065682;28;99962;-27
2021/08/20 14:07:38;;;;;;;93.38;32.42;;;;;;;;;;2065180;28;99960;-20
2021/08/20 14:08:39;;;;;;;90.82;31.70;;;;;;;;;;2065752;28;100124;-18
2021/08/20 14:09:40;;;;;;;94.22;31.25;;;;;;;;;;2074148;28;99914;-20
2021/08/20 14:10:41;;;;;;;88.75;30.30;;;;;;;;;;2073005;28;99891;-21
2021/08/20 14:11:42;;;;;;;84.05;28.17;;;;;;;;;;2064968;28;99961;-19
2021/08/20 14:12:43;;;;;;;83.47;29.75;;;;;;;;;;2073025;28;99904;-21
2021/08/20 14:13:44;;;;;;;;;;;;;;;;;;2073546;28;99920;-21
2021/08/20 14:14:44;;;;;;;80.27;26.57;;;;;;;;;;2081350;28;100334;-21
2021/08/20 14:15:45;;;;;;;;;;;;;;;;;;2082246;28;100021;-22
2021/08/20 14:16:46;;;;;;;74.93;25.63;;;;;;;;;;2066878;28;99907;-19
2021/08/20 14:17:47;;;;;;;;;;;;;;;;;;2074267;28;99995;-20
2021/08/20 14:18:48;;;;;;;;;;;;;;;;;;2074762;28;100118;-19
2021/08/20 14:19:49;;;;;;;61.38;22.45;;;;;;;;;;2073812;28;100004;-19
2021/08/20 14:20:50;;;;;;;63.92;23.02;;;;;;;;;;2073291;28;100058;-19
2021/08/20 14:21:51;;;;;;;72.75;24.85;;;;;;;;;;2074417;28;99805;-17
2021/08/20 14:22:52;;;;;;;;;;;;;;;;;;2074540;28;99963;-18
2021/08/20 14:23:53;;;;;;;69.95;22.92;;;;;;;;;;2074390;28;99830;-19
2021/08/20 14:24:54;;;;;;;70.00;22.58;;;;;;;;;;2073326;28;99950;-18
2021/08/20 14:25:55;;;;;;;66.53;23.40;;;;;;;;;;2073579;28;99926;-18
2021/08/20 14:26:56;;;;;;;;;;;;;;;;;;2073047;28;99987;-15
2021/08/20 14:27:57;;;;;;;71.40;22.88;;;;;;;;;;2065181;28;100055;-20
2021/08/20 14:28:58;;;;;;;53.40;20.98;;;;;;;;;;2064342;28;100045;-16
2021/08/20 14:29:58;;;;;;;;;;;;;;;;;;2065563;28;100181;-17
2021/08/20 14:31:01;;;;;;;62.65;21.45;;;;;;;;;;2067564;28;100124;-20
2021/08/20 14:32:02;;;;;;;50.10;18.08;;;;;;;;;;2074113;28;99793;-17
2021/08/20 14:33:04;;;;;;;64.20;20.77;;;;;;;;;;2073499;28;99901;-19
2021/08/20 14:34:05;;;;;;;50.85;18.70;;;;;;;;;;2074004;28;100513;-20
2021/08/20 14:35:06;;;;;;;53.33;20.60;;;;;;;;;;2070670;28;99993;-19
2021/08/20 14:36:07;;;;;;;51.97;19.30;;;;;;;;;;2065290;28;99950;-20
2021/08/20 14:37:08;;;;;;;;;;;;;;;;;;2068686;28;100068;-18
2021/08/20 14:38:09;;;;;;;50.13;18.27;;;;;;;;;;2073893;28;99990;-17
2021/08/20 14:39:10;;;;;;;52.67;19.40;;;;;;;;;;2073852;28;99803;-17
2021/08/20 14:40:12;;;;;;;52.95;18.23;;;;;;;;;;2074024;28;99911;-18
2021/08/20 14:41:13;;;;;;;53.10;19.85;;;;;;;;;;2072932;28;99988;-17
2021/08/20 14:42:14;;;;;;;44.75;17.52;;;;;;;;;;2073371;28;99921;-17
2021/08/20 14:43:15;;;;;;;;;;;;;;;;;;2074283;28;100006;-17
2021/08/20 14:44:16;;;;;;;38.83;17.40;;;;;;;;;;2074545;28;99908;-16
2021/08/20 14:45:17;;;;;;;;;;;;;;;;;;2073712;28;100324;-16
2021/08/20 14:46:18;;;;;;;45.42;15.85;;;;;;;;;;2066032;28;99944;-19
2021/08/20 14:47:19;;;;;;;42.70;16.38;;;;;;;;;;2069109;28;99994;-18
2021/08/20 14:48:20;;;;;;;;;;;;;;;;;;2074369;28;99832;-19
2021/08/20 14:49:20;;;;;;;36.93;13.73;;;;;;;;;;2073961;28;100128;-15
2021/08/20 14:50:21;;;;;;;;;;;;;;;;;;2074596;28;99916;-17
2021/08/20 14:51:23;;;;;;;40.38;15.68;;;;;;;;;;2068824;28;100484;-17
2021/08/20 14:52:24;;;;;;;42.80;15.32;;;;;;;;;;2065339;28;99936;-16
2021/08/20 14:53:25;;;;;;;45.65;15.73;;;;;;;;;;2069393;28;99945;-19
2021/08/20 14:54:27;;;;;;;40.92;15.27;;;;;;;;;;2073912;28;100081;-20
2021/08/20 14:55:28;;;;;;;;;;;;;;;;;;2073550;28;100047;-17
2021/08/20 14:56:29;;;;;;;37.55;14.25;;;;;;;;;;2073943;28;99805;-17
2021/08/20 14:57:30;;;;;;;;;;;;;;;;;;2073684;28;99850;-17
2021/08/20 14:58:31;;;;;;;35.35;14.70;;;;;;;;;;2073697;28;100004;-18